Time;durP1;ratioP1;P1;durP2;ratioP2;P2;SDS_P1;SDS_P2;PMS_P1;PMS_P2;Temp;Humidity;BMP_temperature;BMP_pressure;BME280_temperature;BME280_humidity;BME280_pressure;Samples;Min_cycle;Max_cycle;Signal;HPM_P1;HPM_P2
2023/12/25 00:00:00;;;;;;;0.60;0.30;;;;;;;11.21;75.99;99104.88;331742;29;12856;-76
2023/12/25 00:00:13;;;;;;;0.50;0.30;;;;;;;11.18;76.13;99095.41;332069;29;18301;-76
2023/12/25 00:00:25;;;;;;;0.55;0.30;;;;;;;11.17;75.94;99098.94;330859;29;13312;-76
2023/12/25 00:00:37;;;;;;;0.60;0.30;;;;;;;11.19;76.70;99089.31;333066;29;4917;-77
2023/12/25 00:00:50;;;;;;;1.10;0.40;;;;;;;11.16;76.08;99097.25;331414;29;4826;-76
2023/12/25 00:01:02;;;;;;;1.02;0.40;;;;;;;11.14;76.47;99093.84;334115;29;5346;-77
2023/12/25 00:01:14;;;;;;;1.35;0.30;;;;;;;11.25;76.01;99085.59;334642;29;4904;-77
2023/12/25 00:01:26;;;;;;;0.65;0.20;;;;;;;11.28;76.15;99095.84;332185;29;18124;-77
2023/12/25 00:01:39;;;;;;;0.20;0.20;;;;;;;11.28;75.80;99100.22;335357;28;4740;-76
2023/12/25 00:01:51;;;;;;;0.47;0.32;;;;;;;11.24;76.50;99124.69;334368;28;5751;-77
2023/12/25 00:02:03;;;;;;;0.90;0.40;;;;;;;11.24;75.69;99083.91;337409;28;4677;-76
2023/12/25 00:02:16;;;;;;;0.75;0.30;;;;;;;11.29;75.83;99097.56;337101;28;4605;-77
2023/12/25 00:02:28;;;;;;;0.75;0.40;;;;;;;11.14;75.55;99093.84;332543;28;18580;-77
2023/12/25 00:02:40;;;;;;;0.80;0.40;;;;;;;11.24;75.97;99096.91;335955;28;4648;-77
2023/12/25 00:02:52;;;;;;;0.63;0.30;;;;;;;11.23;75.95;99091.75;332837;29;18309;-76
2023/12/25 00:03:04;;;;;;;0.20;0.20;;;;;;;11.17;75.98;99109.34;335435;28;4800;-76
2023/12/25 00:03:17;;;;;;;0.30;0.30;;;;;;;11.24;75.95;99093.47;331397;29;19313;-76
2023/12/25 00:03:30;;;;;;;0.40;0.30;;;;;;;11.22;75.96;99097.91;334086;29;4594;-76
2023/12/25 00:03:51;;;;;;;0.90;0.30;;;;;;;11.12;76.39;99095.69;331680;28;17277;-76
2023/12/25 00:04:03;;;;;;;0.90;0.30;;;;;;;11.15;76.83;99074.75;335090;29;5522;-77
2023/12/25 00:04:15;;;;;;;0.55;0.30;;;;;;;11.18;75.94;99085.00;333252;29;6433;-77
2023/12/25 00:04:27;;;;;;;0.50;0.40;;;;;;;11.21;75.88;99115.28;330939;29;17910;-77
2023/12/25 00:04:40;;;;;;;0.57;0.40;;;;;;;11.24;76.08;99088.25;334267;29;6188;-76
2023/12/25 00:04:52;;;;;;;0.40;0.40;;;;;;;11.19;75.80;99097.13;332973;28;19174;-77
2023/12/25 00:05:05;;;;;;;0.40;0.38;;;;;;;11.16;76.02;99092.03;337267;28;4508;-77
2023/12/25 00:05:17;;;;;;;1.33;0.50;;;;;;;11.18;76.06;99104.97;330693;28;5265;-76
2023/12/25 00:05:29;;;;;;;1.52;0.50;;;;;;;11.17;76.22;99092.91;336313;28;4828;-77
2023/12/25 00:05:41;;;;;;;1.35;0.35;;;;;;;11.18;75.92;99078.97;337485;28;4799;-77
2023/12/25 00:05:53;;;;;;;0.50;0.28;;;;;;;11.18;75.86;99079.81;334785;28;18019;-77
2023/12/25 00:06:05;;;;;;;0.28;0.20;;;;;;;11.14;76.40;99090.41;337166;28;5009;-76
2023/12/25 00:06:18;;;;;;;0.60;0.20;;;;;;;11.05;76.43;99086.47;334872;28;16314;-77
2023/12/25 00:06:31;;;;;;;0.70;0.35;;;;;;;11.10;76.60;99113.13;336014;28;5486;-77
2023/12/25 00:06:43;;;;;;;1.23;0.40;;;;;;;11.09;76.37;99088.03;334075;28;7848;-77
2023/12/25 00:06:55;;;;;;;0.80;0.30;;;;;;;11.02;76.87;99084.00;335781;28;5197;-77
2023/12/25 00:07:08;;;;;;;0.85;0.30;;;;;;;11.05;76.77;99088.25;332477;29;13639;-76
2023/12/25 00:07:20;;;;;;;0.65;0.40;;;;;;;11.03;77.20;99090.91;333939;29;17074;-76
2023/12/25 00:07:32;;;;;;;0.68;0.40;;;;;;;11.07;76.94;99087.25;333236;28;18699;-76
2023/12/25 00:07:44;;;;;;;0.40;0.38;;;;;;;11.11;77.02;99083.59;334809;28;4578;-77
2023/12/25 00:07:56;;;;;;;0.30;0.28;;;;;;;11.14;76.54;99082.63;336451;28;4718;-76
2023/12/25 00:08:08;;;;;;;0.30;0.30;;;;;;;11.29;76.16;99083.69;332345;28;18656;-77
2023/12/25 00:08:20;;;;;;;0.38;0.30;;;;;;;11.33;76.13;99093.06;334599;28;17756;-77
2023/12/25 00:08:32;;;;;;;0.47;0.40;;;;;;;11.26;75.89;99081.22;336042;29;4797;-77
2023/12/25 00:08:45;;;;;;;0.40;0.40;;;;;;;11.22;75.98;99082.28;333406;28;16746;-76
2023/12/25 00:08:57;;;;;;;0.60;0.40;;;;;;;11.23;76.20;99086.56;335635;28;5328;-77
2023/12/25 00:09:09;;;;;;;0.50;0.30;;;;;;;11.33;76.08;99078.28;334202;28;18701;-77
2023/12/25 00:09:21;;;;;;;0.40;0.20;;;;;;;11.35;75.50;99078.22;336222;28;4639;-77
2023/12/25 00:09:33;;;;;;;0.30;0.20;;;;;;;11.29;75.65;99087.16;329110;28;17019;-76
2023/12/25 00:09:45;;;;;;;0.45;0.30;;;;;;;11.28;75.84;99095.03;336694;28;4592;-77
2023/12/25 00:09:57;;;;;;;0.90;0.40;;;;;;;11.27;75.74;99070.75;336114;28;4783;-76
2023/12/25 00:10:09;;;;;;;0.80;0.38;;;;;;;11.31;75.47;99084.50;331972;29;18154;-77
2023/12/25 00:10:21;;;;;;;0.93;0.30;;;;;;;11.27;75.44;99103.72;334180;29;4679;-76
2023/12/25 00:10:33;;;;;;;0.60;0.30;;;;;;;11.20;75.51;99085.78;331718;29;18172;-77
2023/12/25 00:10:45;;;;;;;0.70;0.40;;;;;;;11.21;75.70;99081.44;334947;29;4839;-77
2023/12/25 00:10:57;;;;;;;1.42;0.45;;;;;;;11.20;75.35;99093.59;335211;28;4695;-76
2023/12/25 00:11:10;;;;;;;1.70;0.50;;;;;;;11.23;75.34;99086.56;330654;29;18131;-76
2023/12/25 00:11:22;;;;;;;1.70;0.40;;;;;;;11.24;75.26;99077.84;334468;29;5694;-77
2023/12/25 00:11:34;;;;;;;0.82;0.30;;;;;;;11.17;75.78;99092.91;329851;29;18415;-77
2023/12/25 00:11:47;;;;;;;1.40;0.40;;;;;;;11.10;76.07;99086.28;334491;29;4575;-76
2023/12/25 00:11:59;;;;;;;2.35;0.40;;;;;;;11.04;76.07;99082.16;332031;28;13040;-76
2023/12/25 00:12:11;;;;;;;2.47;0.40;;;;;;;11.03;76.00;99101.31;336078;28;5635;-76
2023/12/25 00:12:23;;;;;;;1.55;0.30;;;;;;;11.02;76.33;99084.00;334935;28;5133;-77
2023/12/25 00:12:35;;;;;;;1.08;0.35;;;;;;;11.05;76.20;99068.28;331686;29;18196;-77
2023/12/25 00:12:47;;;;;;;1.30;0.40;;;;;;;11.06;76.21;99097.72;334577;29;5634;-78
2023/12/25 00:12:59;;;;;;;1.08;0.55;;;;;;;11.10;76.27;99071.50;330772;29;19332;-76
2023/12/25 00:13:12;;;;;;;2.30;0.70;;;;;;;11.19;75.93;99081.50;333580;29;4535;-77
2023/12/25 00:13:25;;;;;;;1.98;0.57;;;;;;;11.27;76.37;99069.91;334091;28;4745;-76
2023/12/25 00:13:37;;;;;;;1.35;0.52;;;;;;;11.26;75.85;99065.63;335973;28;5847;-76
2023/12/25 00:13:52;;;;;;;1.88;0.40;;;;;;;11.25;75.34;99089.94;335086;28;12983;-78
2023/12/25 00:14:04;;;;;;;1.40;0.30;;;;;;;11.18;75.80;99095.41;328094;28;18511;-77
2023/12/25 00:14:16;;;;;;;0.45;0.20;;;;;;;11.17;75.68;99078.13;333205;28;18865;-77
2023/12/25 00:14:28;;;;;;;0.28;0.20;;;;;;;11.18;76.07;99078.97;334610;29;4592;-77
2023/12/25 00:14:40;;;;;;;0.40;0.20;;;;;;;11.12;76.03;99100.88;331583;29;12611;-76
2023/12/25 00:14:52;;;;;;;0.60;0.20;;;;;;;11.16;75.95;99092.03;334434;28;5717;-77
2023/12/25 00:15:05;;;;;;;0.45;0.28;;;;;;;11.26;75.84;99097.69;334854;29;4745;-77
2023/12/25 00:15:17;;;;;;;0.38;0.30;;;;;;;11.16;75.75;99094.63;331363;29;17907;-77
2023/12/25 00:15:29;;;;;;;0.57;0.40;;;;;;;11.12;76.03;99084.44;328812;29;5346;-76
2023/12/25 00:15:41;;;;;;;0.55;0.45;;;;;;;11.05;76.44;99088.25;329114;29;18043;-77
2023/12/25 00:15:53;;;;;;;0.50;0.43;;;;;;;11.05;76.72;99080.44;331851;29;4792;-76
2023/12/25 00:16:05;;;;;;;0.40;0.30;;;;;;;11.05;76.58;99078.66;330078;29;12911;-76
2023/12/25 00:16:17;;;;;;;0.73;0.40;;;;;;;11.05;76.59;99034.47;328984;29;5306;-78
2023/12/25 00:16:29;;;;;;;0.90;0.40;;;;;;;11.06;75.82;99095.94;331844;29;7161;-77
2023/12/25 00:16:41;;;;;;;0.90;0.40;;;;;;;11.10;76.21;99105.31;331942;29;16838;-77
2023/12/25 00:16:53;;;;;;;0.30;0.30;;;;;;;11.07;76.22;99092.47;333225;29;5717;-77
2023/12/25 00:17:05;;;;;;;0.30;0.30;;;;;;;11.18;75.84;99090.22;331448;29;11319;-77
2023/12/25 00:17:17;;;;;;;0.30;0.30;;;;;;;11.28;75.23;99095.03;332899;29;17704;-76
2023/12/25 00:17:31;;;;;;;0.95;0.22;;;;;;;11.29;75.23;99070.69;333174;29;6007;-77
2023/12/25 00:17:43;;;;;;;1.10;0.25;;;;;;;11.31;74.92;99095.72;332613;28;18076;-77
2023/12/25 00:17:59;;;;;;;1.05;0.20;;;;;;;11.32;75.01;99070.56;332193;29;16863;-77
2023/12/25 00:18:12;;;;;;;0.95;0.20;;;;;;;11.26;74.76;99096.84;332470;28;18016;-77
2023/12/25 00:18:24;;;;;;;0.68;0.22;;;;;;;11.26;75.07;99091.66;336019;28;4651;-77
2023/12/25 00:18:36;;;;;;;0.80;0.38;;;;;;;11.19;74.87;99081.50;333477;28;17859;-77
2023/12/25 00:18:49;;;;;;;0.85;0.40;;;;;;;11.16;75.26;99050.41;336319;29;4719;-76
2023/12/25 00:19:02;;;;;;;0.93;0.43;;;;;;;11.16;75.38;99086.00;331615;29;13243;-76
2023/12/25 00:19:15;;;;;;;3.33;0.40;;;;;;;11.07;75.76;99095.06;334197;28;5300;-77
2023/12/25 00:19:27;;;;;;;2.95;0.30;;;;;;;11.15;75.52;99092.97;327744;28;18950;-76
2023/12/25 00:19:39;;;;;;;0.57;0.20;;;;;;;11.15;75.59;99092.97;334732;28;4620;-76
2023/12/25 00:19:52;;;;;;;0.25;0.25;;;;;;;11.18;75.11;99090.22;333213;29;17735;-77
2023/12/25 00:20:04;;;;;;;0.52;0.35;;;;;;;11.20;75.38;99093.59;335585;29;4972;-77
2023/12/25 00:20:18;;;;;;;0.73;0.40;;;;;;;11.11;75.76;99086.22;333286;29;19434;-76
2023/12/25 00:20:30;;;;;;;0.70;0.47;;;;;;;11.10;75.96;99076.69;335859;29;5260;-77
2023/12/25 00:20:42;;;;;;;0.75;0.52;;;;;;;11.10;75.64;99089.69;332944;28;18330;-76
2023/12/25 00:20:54;;;;;;;1.17;0.50;;;;;;;11.11;75.47;99094.00;335312;28;4537;-76
2023/12/25 00:21:06;;;;;;;1.00;0.40;;;;;;;11.19;75.19;99078.06;331545;28;5439;-77
2023/12/25 00:21:19;;;;;;;0.80;0.30;;;;;;;11.24;75.47;99098.66;332811;28;18370;-76
2023/12/25 00:21:31;;;;;;;1.50;0.30;;;;;;;11.23;75.41;99099.56;335085;29;4770;-77
2023/12/25 00:21:43;;;;;;;1.33;0.30;;;;;;;11.21;74.89;99099.66;332618;28;11619;-77
2023/12/25 00:21:55;;;;;;;0.88;0.28;;;;;;;11.19;75.63;99081.50;337431;28;5509;-76
2023/12/25 00:22:07;;;;;;;1.40;0.30;;;;;;;11.20;75.35;99098.78;334710;28;13762;-76
2023/12/25 00:22:19;;;;;;;1.40;0.30;;;;;;;11.17;75.12;99079.91;331936;28;4736;-76
2023/12/25 00:22:31;;;;;;;0.50;0.20;;;;;;;11.24;75.18;99096.06;336301;28;6047;-76
2023/12/25 00:22:43;;;;;;;0.20;0.20;;;;;;;11.20;75.37;99090.97;329313;28;17670;-77
2023/12/25 00:22:55;;;;;;;1.60;0.20;;;;;;;11.19;75.80;99096.28;334961;29;5455;-76
2023/12/25 00:23:07;;;;;;;1.77;0.30;;;;;;;11.12;75.86;99082.69;330554;29;12571;-77
2023/12/25 00:23:19;;;;;;;1.15;0.50;;;;;;;11.09;75.72;99080.22;334078;29;5617;-77
2023/12/25 00:23:32;;;;;;;0.93;0.55;;;;;;;11.07;76.03;99095.06;334409;29;5839;-76
2023/12/25 00:23:44;;;;;;;0.35;0.32;;;;;;;11.11;76.16;99077.56;331307;28;18756;-77
2023/12/25 00:23:56;;;;;;;0.45;0.32;;;;;;;11.07;76.12;99092.47;335281;29;4595;-77
2023/12/25 00:24:08;;;;;;;0.50;0.40;;;;;;;11.05;76.21;99083.88;330512;29;18365;-76
2023/12/25 00:24:20;;;;;;;0.32;0.32;;;;;;;10.97;76.45;99102.41;333643;29;4598;-76
2023/12/25 00:24:32;;;;;;;0.40;0.40;;;;;;;11.04;76.30;99087.38;333408;28;18112;-76
2023/12/25 00:24:44;;;;;;;0.45;0.45;;;;;;;11.03;76.56;99095.22;335577;29;4692;-77
2023/12/25 00:24:56;;;;;;;2.15;0.60;;;;;;;11.05;76.07;99078.66;336037;28;5162;-77
2023/12/25 00:25:08;;;;;;;1.92;0.50;;;;;;;11.04;77.04;99091.75;333050;28;5716;-77
2023/12/25 00:25:21;;;;;;;1.25;0.35;;;;;;;11.03;76.47;99084.84;330388;28;5648;-76
2023/12/25 00:25:32;;;;;;;0.35;0.20;;;;;;;11.05;76.11;99094.28;334806;28;14123;-76
2023/12/25 00:25:45;;;;;;;0.50;0.20;;;;;;;11.03;76.34;99088.31;332587;28;18309;-76
2023/12/25 00:25:56;;;;;;;0.60;0.20;;;;;;;11.12;76.37;99089.66;335779;28;4605;-76
2023/12/25 00:26:09;;;;;;;0.60;0.28;;;;;;;11.16;75.74;99097.25;333403;28;8337;-77
2023/12/25 00:26:21;;;;;;;0.60;0.30;;;;;;;11.19;75.26;99097.13;335995;28;4629;-77
2023/12/25 00:26:33;;;;;;;0.30;0.30;;;;;;;11.23;75.38;99107.38;333130;28;13304;-76
2023/12/25 00:26:45;;;;;;;0.35;0.30;;;;;;;11.19;75.24;99086.72;333371;28;12836;-77
2023/12/25 00:26:57;;;;;;;0.40;0.30;;;;;;;11.22;75.21;99097.91;335928;28;5546;-76
2023/12/25 00:27:09;;;;;;;0.50;0.40;;;;;;;11.19;75.46;99089.31;334001;28;18360;-76
2023/12/25 00:27:22;;;;;;;0.43;0.40;;;;;;;11.20;75.26;99098.78;337138;28;4600;-77
2023/12/25 00:27:34;;;;;;;0.40;0.32;;;;;;;11.20;75.52;99082.34;334543;28;17887;-76
2023/12/25 00:27:46;;;;;;;0.52;0.30;;;;;;;11.21;75.21;99078.84;337086;28;4732;-76
2023/12/25 00:27:58;;;;;;;0.47;0.30;;;;;;;11.24;75.19;99088.25;331669;28;4737;-76
2023/12/25 00:28:10;;;;;;;0.40;0.30;;;;;;;11.15;75.34;99090.34;336340;28;4593;-76
2023/12/25 00:28:22;;;;;;;0.50;0.30;;;;;;;11.22;75.41;99084.88;336427;28;4523;-76
2023/12/25 00:28:34;;;;;;;0.50;0.30;;;;;;;11.17;75.77;99088.53;333332;28;18127;-76
2023/12/25 00:28:46;;;;;;;0.45;0.30;;;;;;;11.12;75.70;99074.88;336160;28;5108;-76
2023/12/25 00:28:58;;;;;;;0.43;0.30;;;;;;;11.09;76.17;99079.38;333074;28;5365;-76
2023/12/25 00:29:10;;;;;;;0.40;0.30;;;;;;;11.02;76.17;99084.00;336243;28;5262;-76
2023/12/25 00:29:22;;;;;;;0.50;0.30;;;;;;;11.06;76.46;99069.94;334987;28;4626;-77
2023/12/25 00:29:34;;;;;;;0.85;0.38;;;;;;;11.03;76.63;99079.63;328608;28;12566;-76
2023/12/25 00:29:46;;;;;;;0.95;0.40;;;;;;;11.06;76.31;99085.56;336875;28;4697;-76
2023/12/25 00:29:58;;;;;;;0.85;0.40;;;;;;;11.06;76.27;99085.56;336996;28;4748;-76
2023/12/25 00:30:11;;;;;;;0.30;0.30;;;;;;;11.09;76.47;99074.19;329047;28;14070;-76
2023/12/25 00:30:23;;;;;;;0.40;0.30;;;;;;;11.08;76.43;99062.91;334776;28;5141;-76
2023/12/25 00:30:35;;;;;;;1.20;0.30;;;;;;;11.04;76.11;99087.38;332020;28;18143;-77
2023/12/25 00:30:47;;;;;;;1.40;0.35;;;;;;;11.04;76.20;99060.53;335312;29;4865;-77
2023/12/25 00:30:59;;;;;;;1.50;0.40;;;;;;;11.01;76.67;99087.53;333111;28;4966;-76
2023/12/25 00:31:12;;;;;;;0.90;0.50;;;;;;;11.09;75.81;99085.44;335534;29;5250;-77
2023/12/25 00:31:24;;;;;;;1.20;0.50;;;;;;;11.20;75.58;99072.78;334830;28;8792;-76
2023/12/25 00:31:36;;;;;;;0.90;0.28;;;;;;;11.20;75.68;99077.97;332270;28;18911;-76
2023/12/25 00:31:48;;;;;;;0.55;0.38;;;;;;;11.10;75.46;99084.50;336011;28;4770;-77
2023/12/25 00:32:00;;;;;;;0.63;0.40;;;;;;;11.14;75.68;99080.84;330832;29;18085;-77
2023/12/25 00:32:12;;;;;;;0.45;0.30;;;;;;;11.12;75.96;99053.22;332653;29;5529;-77
2023/12/25 00:32:24;;;;;;;0.47;0.20;;;;;;;11.16;75.85;99076.44;333412;28;5061;-76
2023/12/25 00:32:38;;;;;;;0.60;0.20;;;;;;;11.16;76.06;99073.81;332386;28;17810;-77
2023/12/25 00:32:50;;;;;;;0.73;0.32;;;;;;;11.04;76.14;99089.97;327677;28;4866;-76
2023/12/25 00:33:02;;;;;;;1.50;0.57;;;;;;;11.04;75.77;99074.38;335003;28;4856;-77
2023/12/25 00:33:15;;;;;;;2.40;0.50;;;;;;;11.13;75.84;99075.75;332819;28;5425;-77
2023/12/25 00:33:27;;;;;;;1.73;0.30;;;;;;;11.19;76.02;99080.66;334552;28;4543;-76
2023/12/25 00:33:39;;;;;;;0.50;0.20;;;;;;;11.25;75.38;99093.41;331257;29;4930;-77
2023/12/25 00:33:52;;;;;;;0.20;0.20;;;;;;;11.31;75.53;99071.47;327343;29;17851;-76
2023/12/25 00:34:04;;;;;;;0.20;0.20;;;;;;;11.30;75.40;99069.78;333898;29;4765;-76
2023/12/25 00:34:16;;;;;;;0.25;0.20;;;;;;;11.20;75.63;99083.19;331356;28;19354;-78
2023/12/25 00:34:28;;;;;;;1.83;0.35;;;;;;;11.16;75.55;99079.03;336719;29;4903;-77
2023/12/25 00:34:42;;;;;;;1.90;0.30;;;;;;;11.17;75.94;99085.94;333098;28;17980;-76
2023/12/25 00:34:54;;;;;;;0.50;0.30;;;;;;;11.18;75.69;99076.38;336256;28;5540;-77
2023/12/25 00:35:06;;;;;;;0.40;0.30;;;;;;;11.16;76.00;99083.41;333520;28;18022;-76
2023/12/25 00:35:18;;;;;;;0.50;0.30;;;;;;;11.16;76.01;99059.97;335633;28;4528;-77
2023/12/25 00:35:30;;;;;;;0.35;0.30;;;;;;;11.18;75.75;99053.78;330363;29;5917;-77
2023/12/25 00:35:42;;;;;;;0.30;0.20;;;;;;;11.25;75.49;99083.00;332033;29;18047;-77
2023/12/25 00:35:54;;;;;;;1.10;0.35;;;;;;;11.32;75.08;99076.59;333387;29;4688;-76
2023/12/25 00:36:07;;;;;;;1.80;0.50;;;;;;;11.23;75.37;99102.16;329781;29;17953;-76
2023/12/25 00:36:19;;;;;;;1.73;0.50;;;;;;;11.25;75.53;99085.59;332938;29;5483;-77
2023/12/25 00:36:31;;;;;;;0.73;0.35;;;;;;;11.19;75.54;99089.31;329977;29;5541;-76
2023/12/25 00:36:43;;;;;;;0.30;0.22;;;;;;;11.11;75.74;99083.59;328348;29;4609;-76
2023/12/25 00:36:55;;;;;;;0.38;0.30;;;;;;;11.11;75.79;99081.00;331857;29;4576;-77
2023/12/25 00:37:07;;;;;;;1.70;0.50;;;;;;;11.13;75.53;99080.94;325838;29;5388;-77
2023/12/25 00:37:19;;;;;;;1.80;0.50;;;;;;;11.09;75.89;99090.63;331654;29;4704;-76
2023/12/25 00:37:31;;;;;;;1.05;0.40;;;;;;;11.10;75.65;99084.50;329527;29;12752;-76
2023/12/25 00:37:43;;;;;;;1.10;0.30;;;;;;;11.14;75.74;99077.41;332925;29;6094;-77
2023/12/25 00:37:55;;;;;;;1.10;0.30;;;;;;;11.18;75.56;99073.75;332978;29;4703;-76
2023/12/25 00:38:07;;;;;;;1.77;0.30;;;;;;;11.16;75.60;99075.59;330422;29;18799;-76
2023/12/25 00:38:19;;;;;;;1.27;0.30;;;;;;;11.17;75.62;99072.94;332382;29;5023;-77
2023/12/25 00:38:31;;;;;;;1.27;0.30;;;;;;;11.22;75.37;99084.88;330560;29;16287;-76
2023/12/25 00:38:43;;;;;;;0.40;0.22;;;;;;;11.29;75.15;99068.06;334159;28;4601;-77
2023/12/25 00:38:55;;;;;;;1.00;0.30;;;;;;;11.27;75.15;99072.50;334332;29;4559;-77
2023/12/25 00:39:08;;;;;;;0.93;0.30;;;;;;;11.17;75.42;99062.53;333020;29;17862;-76
2023/12/25 00:39:20;;;;;;;0.55;0.30;;;;;;;11.13;75.38;99076.59;335801;28;5773;-77
2023/12/25 00:39:32;;;;;;;0.70;0.40;;;;;;;11.14;75.37;99085.22;332134;28;12517;-77
2023/12/25 00:39:46;;;;;;;0.40;0.30;;;;;;;11.18;75.66;99079.81;331164;28;5849;-77
2023/12/25 00:39:58;;;;;;;0.20;0.20;;;;;;;11.19;75.53;99076.31;332678;28;18696;-76
2023/12/25 00:40:10;;;;;;;0.70;0.40;;;;;;;11.17;75.56;99093.75;336111;28;4534;-76
2023/12/25 00:40:22;;;;;;;0.80;0.40;;;;;;;11.18;75.93;99079.81;331962;28;18130;-76
2023/12/25 00:40:34;;;;;;;0.85;0.38;;;;;;;11.14;75.91;99085.22;337101;28;4869;-76
2023/12/25 00:40:50;;;;;;;0.55;0.30;;;;;;;11.09;76.26;99084.59;334438;28;17945;-77
2023/12/25 00:41:02;;;;;;;2.30;0.30;;;;;;;11.08;76.27;99072.47;333182;28;16319;-76
2023/12/25 00:41:14;;;;;;;2.20;0.28;;;;;;;11.02;76.44;99067.56;334568;29;4689;-77
2023/12/25 00:41:31;;;;;;;0.30;0.30;;;;;;;11.03;75.90;99088.31;334377;29;4742;-77
2023/12/25 00:41:43;;;;;;;0.40;0.30;;;;;;;11.12;75.91;99087.88;331009;29;15091;-77
2023/12/25 00:41:55;;;;;;;1.00;0.32;;;;;;;11.16;76.12;99086.84;335839;28;5520;-76
2023/12/25 00:42:07;;;;;;;2.67;0.40;;;;;;;11.17;75.95;99087.69;331877;29;17804;-76
2023/12/25 00:42:19;;;;;;;2.65;0.30;;;;;;;11.14;75.78;99093.84;333445;29;4730;-77
2023/12/25 00:42:32;;;;;;;0.30;0.25;;;;;;;11.07;76.20;99078.63;333393;29;4677;-77
2023/12/25 00:42:43;;;;;;;0.20;0.20;;;;;;;11.04;76.05;99086.53;329724;29;4609;-76
2023/12/25 00:42:55;;;;;;;0.20;0.20;;;;;;;11.07;76.14;99094.22;331242;29;5695;-77
2023/12/25 00:43:07;;;;;;;0.38;0.30;;;;;;;11.10;76.00;99086.28;331183;29;11104;-76
2023/12/25 00:43:19;;;;;;;0.60;0.37;;;;;;;11.07;76.42;99102.03;328393;29;17968;-76
2023/12/25 00:43:32;;;;;;;0.77;0.40;;;;;;;11.06;76.05;99098.56;331025;29;4887;-77
2023/12/25 00:43:44;;;;;;;0.60;0.30;;;;;;;11.13;76.29;99086.97;329462;29;13415;-77
2023/12/25 00:43:58;;;;;;;0.70;0.38;;;;;;;11.11;75.83;99104.41;327422;29;4941;-78
2023/12/25 00:44:10;;;;;;;1.35;0.40;;;;;;;11.24;75.97;99080.47;331079;29;17662;-77
2023/12/25 00:44:22;;;;;;;1.10;0.30;;;;;;;11.22;75.95;99090.09;334348;29;5157;-77
2023/12/25 00:44:34;;;;;;;0.52;0.32;;;;;;;11.15;75.76;99095.56;333468;28;5445;-77
2023/12/25 00:44:46;;;;;;;0.50;0.30;;;;;;;11.20;75.74;99077.97;334912;28;4673;-78
2023/12/25 00:44:58;;;;;;;0.68;0.32;;;;;;;11.08;76.48;99083.72;329531;29;16948;-76
2023/12/25 00:45:11;;;;;;;0.60;0.30;;;;;;;11.04;76.33;99086.53;332861;29;4758;-77
2023/12/25 00:45:23;;;;;;;0.55;0.28;;;;;;;10.98;76.67;99087.63;332844;29;4872;-77
2023/12/25 00:45:35;;;;;;;0.40;0.22;;;;;;;11.03;76.63;99075.28;325953;29;18605;-77
2023/12/25 00:45:47;;;;;;;0.47;0.30;;;;;;;11.07;76.52;99091.63;332936;29;5566;-77
2023/12/25 00:46:04;;;;;;;0.50;0.30;;;;;;;11.01;76.41;99077.13;330952;29;12642;-76
2023/12/25 00:46:16;;;;;;;2.10;0.40;;;;;;;11.09;76.08;99085.44;329326;29;17979;-77
2023/12/25 00:46:28;;;;;;;2.15;0.30;;;;;;;11.09;76.15;99093.22;332134;29;4611;-77
2023/12/25 00:46:41;;;;;;;0.50;0.20;;;;;;;11.11;75.67;99096.63;329898;29;17525;-77
2023/12/25 00:46:53;;;;;;;0.43;0.30;;;;;;;11.13;76.03;99081.78;334143;29;4645;-77
2023/12/25 00:47:05;;;;;;;1.05;0.30;;;;;;;11.08;75.99;99094.13;332119;29;13613;-77
2023/12/25 00:47:17;;;;;;;1.50;0.22;;;;;;;11.08;76.23;99094.13;332526;29;17048;-77
2023/12/25 00:47:29;;;;;;;1.30;0.22;;;;;;;11.16;75.89;99092.03;334659;29;4767;-77
2023/12/25 00:47:41;;;;;;;0.43;0.32;;;;;;;11.18;75.62;99092.81;333734;28;4569;-77
2023/12/25 00:47:53;;;;;;;0.40;0.35;;;;;;;11.19;75.52;99067.66;335587;28;4989;-77
2023/12/25 00:48:06;;;;;;;0.50;0.30;;;;;;;11.28;75.10;99064.63;332640;28;18112;-77
2023/12/25 00:48:18;;;;;;;0.55;0.40;;;;;;;11.27;75.43;99099.38;335186;28;5306;-77
2023/12/25 00:48:30;;;;;;;0.52;0.35;;;;;;;11.26;75.39;99091.66;327489;29;17894;-77
2023/12/25 00:48:42;;;;;;;0.55;0.30;;;;;;;11.23;75.22;99097.84;335575;28;5988;-77
2023/12/25 00:48:55;;;;;;;1.42;0.40;;;;;;;11.24;75.06;99103.88;333051;28;13362;-77
2023/12/25 00:49:07;;;;;;;1.75;0.35;;;;;;;11.23;74.92;99082.22;335359;29;5114;-77
2023/12/25 00:49:20;;;;;;;1.35;0.40;;;;;;;11.23;75.11;99073.56;332109;28;12264;-76
2023/12/25 00:49:33;;;;;;;0.77;0.38;;;;;;;11.30;74.99;99106.19;334776;29;4846;-78
2023/12/25 00:49:45;;;;;;;0.43;0.32;;;;;;;11.32;74.72;99106.97;333939;29;13134;-77
2023/12/25 00:49:57;;;;;;;0.57;0.38;;;;;;;11.25;75.13;99109.03;331727;28;18069;-77
2023/12/25 00:50:09;;;;;;;0.50;0.30;;;;;;;11.27;75.03;99098.50;334495;29;4682;-76
2023/12/25 00:50:21;;;;;;;0.50;0.40;;;;;;;11.24;75.39;99101.28;331931;28;17777;-77
2023/12/25 00:50:34;;;;;;;0.55;0.32;;;;;;;11.16;75.75;99094.63;334967;29;4668;-77
2023/12/25 00:50:46;;;;;;;1.08;0.50;;;;;;;11.16;75.93;99102.44;331889;29;10928;-77
2023/12/25 00:50:58;;;;;;;1.00;0.50;;;;;;;11.16;76.14;99089.44;334005;29;4643;-77
2023/12/25 00:51:10;;;;;;;0.70;0.40;;;;;;;11.17;75.82;99093.75;334313;29;4609;-77
2023/12/25 00:51:23;;;;;;;0.70;0.30;;;;;;;11.16;75.79;99105.03;331935;28;17890;-77
2023/12/25 00:51:35;;;;;;;0.80;0.30;;;;;;;11.20;76.23;99101.38;335794;28;4628;-77
2023/12/25 00:51:47;;;;;;;0.50;0.40;;;;;;;11.27;75.56;99108.94;328648;28;18271;-76
2023/12/25 00:51:59;;;;;;;0.65;0.47;;;;;;;11.22;75.47;99100.50;335996;28;5403;-77
2023/12/25 00:52:14;;;;;;;0.70;0.40;;;;;;;11.14;75.90;99126.84;333099;29;16826;-77
2023/12/25 00:52:26;;;;;;;0.60;0.38;;;;;;;11.17;75.29;99105.91;330891;29;13953;-76
2023/12/25 00:52:38;;;;;;;0.45;0.30;;;;;;;11.18;75.65;99112.78;334156;29;4553;-76
2023/12/25 00:52:50;;;;;;;1.60;0.30;;;;;;;11.17;75.57;99103.31;328614;28;4618;-76
2023/12/25 00:53:02;;;;;;;1.48;0.28;;;;;;;11.14;75.94;99103.44;331660;29;13260;-76
2023/12/25 00:53:14;;;;;;;1.10;0.30;;;;;;;11.18;75.56;99118.81;334862;29;4570;-76
2023/12/25 00:53:26;;;;;;;1.10;0.30;;;;;;;11.26;75.81;99107.25;331332;29;13218;-76
2023/12/25 00:53:38;;;;;;;0.50;0.28;;;;;;;11.19;75.73;99112.72;332956;29;5151;-77
2023/12/25 00:53:50;;;;;;;0.28;0.20;;;;;;;11.17;75.96;99114.56;334490;29;4580;-76
2023/12/25 00:54:02;;;;;;;1.30;0.30;;;;;;;11.17;75.85;99108.50;326966;29;18149;-77
2023/12/25 00:54:15;;;;;;;1.30;0.30;;;;;;;11.14;75.76;99114.66;334599;29;5445;-77
2023/12/25 00:54:29;;;;;;;0.57;0.20;;;;;;;11.13;76.22;99109.56;327998;29;5261;-77
2023/12/25 00:54:41;;;;;;;1.02;0.40;;;;;;;11.17;75.98;99105.91;332137;29;4742;-77
2023/12/25 00:54:53;;;;;;;1.20;0.40;;;;;;;11.19;76.22;99094.50;335261;28;4639;-77
2023/12/25 00:55:05;;;;;;;1.27;0.30;;;;;;;11.19;75.66;99114.50;335574;28;4769;-77
2023/12/25 00:55:18;;;;;;;1.00;0.30;;;;;;;11.25;75.65;99106.41;334003;28;17778;-77
2023/12/25 00:55:30;;;;;;;0.68;0.32;;;;;;;11.18;75.91;99131.84;336196;28;5275;-76
2023/12/25 00:55:42;;;;;;;0.30;0.30;;;;;;;11.19;75.32;99127.50;329002;28;17780;-77
2023/12/25 00:55:54;;;;;;;0.40;0.30;;;;;;;11.16;75.47;99099.84;336370;28;4805;-77
2023/12/25 00:56:08;;;;;;;0.43;0.25;;;;;;;11.20;75.74;99095.34;336417;28;5105;-77
2023/12/25 00:56:20;;;;;;;0.40;0.30;;;;;;;11.20;75.06;99109.19;333337;28;14641;-76
2023/12/25 00:56:32;;;;;;;0.30;0.20;;;;;;;11.25;75.19;99092.53;332802;28;8037;-76
2023/12/25 00:56:44;;;;;;;0.50;0.30;;;;;;;11.30;74.84;99117.44;336242;28;4647;-77
2023/12/25 00:56:58;;;;;;;0.70;0.30;;;;;;;11.27;74.78;99108.94;335738;28;12282;-76
2023/12/25 00:57:10;;;;;;;0.90;0.30;;;;;;;11.24;74.57;99106.47;334770;28;18303;-76
2023/12/25 00:57:22;;;;;;;0.70;0.30;;;;;;;11.29;74.71;99086.28;334873;28;13314;-76
2023/12/25 00:57:34;;;;;;;1.10;0.50;;;;;;;11.31;74.71;99089.69;336724;28;5387;-77
2023/12/25 00:57:47;;;;;;;0.80;0.50;;;;;;;11.29;74.92;99109.69;336114;28;5479;-78
2023/12/25 00:57:59;;;;;;;0.95;0.45;;;;;;;11.27;74.98;99108.94;334484;28;16683;-77
2023/12/25 00:58:12;;;;;;;0.60;0.30;;;;;;;11.25;74.75;99110.75;335822;28;8340;-76
2023/12/25 00:58:24;;;;;;;0.45;0.28;;;;;;;11.20;74.66;99118.75;336314;28;4810;-77
2023/12/25 00:58:36;;;;;;;0.50;0.30;;;;;;;11.17;75.12;99098.94;330963;28;5298;-77
2023/12/25 00:58:48;;;;;;;0.52;0.30;;;;;;;11.20;75.26;99124.81;332610;28;17996;-76
2023/12/25 00:59:00;;;;;;;0.68;0.32;;;;;;;11.16;74.95;99084.22;336276;28;4999;-76